Time;durP1;ratioP1;P1;durP2;ratioP2;P2;SDS_P1;SDS_P2;PMS_P1;PMS_P2;Temp;Humidity;BMP_temperature;BMP_pressure;BME280_temperature;BME280_humidity;BME280_pressure;Samples;Min_cycle;Max_cycle;Signal;HPM_P1;HPM_P2
2022/10/13 00:00:12;;;;;;;9.67;4.50;;;;;;;9.87;94.81;100859.47;5019885;28;20706;-81
2022/10/13 00:02:38;;;;;;;10.33;4.37;;;;;;;9.88;94.50;100866.41;5021255;28;20234;-81
2022/10/13 00:05:05;;;;;;;5.40;4.20;;;;;;;9.84;95.29;100862.13;5021184;28;20215;-81
2022/10/13 00:07:32;;;;;;;7.83;4.53;;;;;;;9.85;94.91;100859.50;5020981;28;20211;-81
2022/10/13 00:09:58;;;;;;;7.77;4.27;;;;;;;9.83;95.28;100855.16;5017860;28;20215;-80
2022/10/13 00:12:25;;;;;;;6.07;4.67;;;;;;;9.80;95.70;100844.78;5018059;28;20234;-81
2022/10/13 00:14:52;;;;;;;4.63;4.13;;;;;;;9.82;95.57;100838.66;5019611;28;20217;-80
2022/10/13 00:17:19;;;;;;;5.60;4.17;;;;;;;9.83;95.44;100835.19;5024519;28;20207;-82
2022/10/13 00:19:45;;;;;;;7.13;4.50;;;;;;;9.86;94.97;100837.75;5022302;28;20219;-82
2022/10/13 00:22:12;;;;;;;8.33;4.43;;;;;;;9.86;94.91;100852.53;5022100;28;20243;-81
2022/10/13 00:24:38;;;;;;;8.13;4.90;;;;;;;9.84;94.61;100849.06;5022098;28;20210;-81
2022/10/13 00:27:05;;;;;;;6.90;4.43;;;;;;;9.82;94.85;100845.63;5021930;28;20206;-82
2022/10/13 00:29:31;;;;;;;12.33;3.97;;;;;;;9.84;94.46;100843.84;5022386;28;20214;-81
2022/10/13 00:31:59;;;;;;;18.87;4.30;;;;;;;9.86;94.49;100861.22;5021945;28;20255;-81
2022/10/13 00:34:25;;;;;;;7.57;4.30;;;;;;;9.87;94.37;100862.94;5022650;28;20212;-81
2022/10/13 00:36:52;;;;;;;5.10;4.13;;;;;;;9.94;94.50;100868.97;5022657;28;20211;-81
2022/10/13 00:39:18;;;;;;;5.97;3.93;;;;;;;9.97;94.20;100871.56;5023585;28;20231;-81
2022/10/13 00:41:45;;;;;;;6.00;4.53;;;;;;;9.97;94.12;100876.78;5029676;28;20231;-80
2022/10/13 00:44:44;;;;;;;7.27;4.10;;;;;;;10.00;93.98;100886.31;5031273;28;20213;-80
2022/10/13 00:47:12;;;;;;;6.00;3.67;;;;;;;10.01;93.64;100890.63;5021088;28;20601;-81
2022/10/13 00:49:39;;;;;;;7.13;4.00;;;;;;;9.99;93.48;100888.06;5021281;28;20218;-81
2022/10/13 00:52:05;;;;;;;9.00;4.90;;;;;;;9.99;93.58;100895.00;5023585;28;20226;-81
2022/10/13 00:54:32;;;;;;;6.03;4.60;;;;;;;9.98;93.38;100894.13;5037572;28;20197;-80
2022/10/13 00:56:59;;;;;;;8.17;5.37;;;;;;;10.00;93.48;100899.34;5037871;28;20233;-80
2022/10/13 00:59:28;;;;;;;7.63;4.60;;;;;;;10.01;93.64;100896.72;5037767;28;20232;-80
2022/10/13 01:01:55;;;;;;;11.13;4.70;;;;;;;10.03;93.59;100899.28;5037502;28;20231;-80
2022/10/13 01:04:26;;;;;;;12.40;4.77;;;;;;;10.07;93.52;100895.81;5037824;28;20198;-80
2022/10/13 01:06:54;;;;;;;9.90;4.33;;;;;;;10.07;93.71;100898.41;5037625;28;20219;-80
2022/10/13 01:09:21;;;;;;;5.97;4.33;;;;;;;10.08;93.76;100895.78;5037131;28;20219;-81
2022/10/13 01:12:02;;;;;;;6.93;4.83;;;;;;;10.10;93.43;100898.38;5036174;28;20236;-80
2022/10/13 01:14:35;;;;;;;8.30;4.33;;;;;;;10.08;93.39;100900.13;5026355;28;20213;-80
2022/10/13 01:17:12;;;;;;;12.70;6.30;;;;;;;10.08;93.46;100894.91;5022271;28;20214;-80
2022/10/13 01:20:15;;;;;;;17.43;4.57;;;;;;;10.04;93.52;100891.47;5022170;28;20231;-80
2022/10/13 01:22:58;;;;;;;9.90;4.60;;;;;;;10.05;nan;100907.97;5021732;28;20226;-80
2022/10/13 01:25:39;;;;;;;7.23;4.10;;;;;;;10.06;93.57;100894.94;5022178;28;20578;-80
2022/10/13 01:28:22;;;;;;;6.73;4.53;;;;;;;10.05;93.79;100895.81;5021757;28;20203;-80
2022/10/13 01:30:58;;;;;;;7.03;4.70;;;;;;;10.04;93.76;100888.00;5021850;28;20704;-79
2022/10/13 01:33:35;;;;;;;6.87;4.47;;;;;;;10.06;93.71;100883.63;5022136;28;20234;-79
2022/10/13 01:36:14;;;;;;;6.00;5.50;;;;;;;9.96;94.71;100871.56;5021224;28;20212;-82
2022/10/13 01:38:47;;;;;;;12.03;7.67;;;;;;;9.74;94.81;100856.97;5020637;28;20223;-81
2022/10/13 01:41:18;;;;;;;6.53;5.80;;;;;;;9.83;94.95;100850.81;5020079;28;20577;-82
2022/10/13 01:43:50;;;;;;;6.37;5.77;;;;;;;9.86;94.69;100850.78;5021411;28;20239;-81
2022/10/13 01:46:22;;;;;;;7.17;5.43;;;;;;;9.90;94.68;100849.00;5021024;28;20642;-82
2022/10/13 01:48:51;;;;;;;10.93;6.37;;;;;;;9.89;94.33;100847.28;5020875;28;20203;-82
2022/10/13 01:51:20;;;;;;;7.03;5.77;;;;;;;9.91;94.51;100850.72;5021004;28;20216;-82
2022/10/13 01:53:48;;;;;;;8.93;5.20;;;;;;;9.88;94.21;100850.78;5021604;28;20230;-81
2022/10/13 01:56:15;;;;;;;7.83;4.60;;;;;;;9.87;93.98;100857.75;5021418;28;20216;-82
2022/10/13 01:58:42;;;;;;;17.57;5.27;;;;;;;9.86;93.58;100856.00;5020485;28;20234;-81
2022/10/13 02:01:27;;;;;;;7.20;4.93;;;;;;;9.82;93.33;100869.94;5020674;28;20259;-82
2022/10/13 02:04:08;;;;;;;6.57;4.53;;;;;;;9.79;92.89;100875.19;5021406;28;20210;-82
2022/10/13 02:06:41;;;;;;;6.50;4.80;;;;;;;9.78;92.88;100880.41;5021745;28;20216;-81
2022/10/13 02:09:13;;;;;;;10.20;5.17;;;;;;;9.80;92.69;100873.44;5021506;28;20224;-81
2022/10/13 02:11:47;;;;;;;5.97;4.33;;;;;;;9.81;92.79;100880.38;5020310;28;20208;-81
2022/10/13 02:14:19;;;;;;;6.97;4.97;;;;;;;9.80;92.75;100878.66;5021624;28;20263;-81
2022/10/13 02:16:50;;;;;;;11.97;4.97;;;;;;;9.79;92.73;100883.03;5020857;28;20210;-82
2022/10/13 02:19:19;;;;;;;4.47;4.07;;;;;;;9.76;92.99;100869.16;5021315;28;20231;-82
2022/10/13 02:21:46;;;;;;;5.20;4.40;;;;;;;9.73;93.39;100859.59;5020540;28;20407;-82
2022/10/13 02:24:13;;;;;;;10.83;4.27;;;;;;;9.72;93.48;100850.06;5020647;28;20220;-82
2022/10/13 02:26:41;;;;;;;7.00;4.97;;;;;;;9.68;93.92;100838.78;5021641;28;20207;-81
2022/10/13 02:29:09;;;;;;;8.00;4.60;;;;;;;9.69;94.17;100826.59;5021642;28;20217;-81
2022/10/13 02:31:35;;;;;;;8.63;5.13;;;;;;;9.68;94.96;100801.44;5020592;28;20216;-80
2022/10/13 02:34:04;;;;;;;5.87;4.17;;;;;;;9.70;95.07;100800.53;5021347;28;20214;-80
2022/10/13 02:36:31;;;;;;;8.90;4.90;;;;;;;9.69;95.13;100793.59;5021517;28;20207;-81
2022/10/13 02:38:57;;;;;;;7.67;5.27;;;;;;;9.66;95.83;100777.13;5020930;28;20736;-81
2022/10/13 02:41:24;;;;;;;10.63;4.70;;;;;;;9.67;96.06;100763.19;5021315;28;20215;-80
2022/10/13 02:43:50;;;;;;;6.80;5.20;;;;;;;9.68;95.67;100773.63;5021046;28;20237;-80
2022/10/13 02:46:17;;;;;;;8.67;5.13;;;;;;;9.71;95.71;100777.91;5020940;28;20214;-82
2022/10/13 02:48:43;;;;;;;9.80;4.60;;;;;;;9.70;95.50;100787.50;5021676;28;20678;-80
2022/10/13 02:51:11;;;;;;;5.67;4.13;;;;;;;9.69;95.12;100788.38;5021226;28;20208;-80
2022/10/13 02:53:37;;;;;;;12.60;5.50;;;;;;;9.68;94.87;100796.22;5020789;28;20748;-80
2022/10/13 02:56:04;;;;;;;7.53;5.93;;;;;;;9.63;95.27;100801.47;5021643;28;20242;-80
2022/10/13 02:58:31;;;;;;;7.37;5.40;;;;;;;9.64;95.62;100791.91;5021387;28;20229;-80
2022/10/13 03:01:05;;;;;;;7.63;5.50;;;;;;;9.62;95.80;100783.25;5020955;28;20211;-80
2022/10/13 03:03:31;;;;;;;7.43;5.00;;;;;;;9.59;96.05;100776.28;5022106;28;20227;-81
2022/10/13 03:05:58;;;;;;;5.30;4.80;;;;;;;9.56;95.97;100778.09;5021540;28;20218;-81
2022/10/13 03:08:25;;;;;;;11.07;7.03;;;;;;;9.56;96.03;100773.75;5021337;28;20204;-81
2022/10/13 03:10:52;;;;;;;7.07;5.57;;;;;;;9.56;96.01;100772.88;5021044;28;20245;-80
2022/10/13 03:13:19;;;;;;;9.23;5.23;;;;;;;9.56;96.17;100772.88;5021182;28;20227;-81
2022/10/13 03:15:46;;;;;;;8.27;5.37;;;;;;;9.60;95.95;100764.16;5021034;28;20207;-81
2022/10/13 03:18:13;;;;;;;11.00;5.97;;;;;;;9.61;95.74;100777.16;5021058;28;20213;-81
2022/10/13 03:20:39;;;;;;;9.13;5.83;;;;;;;9.62;95.55;100778.03;5020868;28;20204;-78
2022/10/13 03:23:06;;;;;;;8.20;6.10;;;;;;;9.63;95.57;100782.34;5020913;28;20219;-82
2022/10/13 03:25:34;;;;;;;13.30;5.90;;;;;;;9.60;95.69;100775.44;5021260;28;20212;-80
2022/10/13 03:28:01;;;;;;;12.33;6.10;;;;;;;9.60;95.56;100775.44;5021298;28;20206;-80
2022/10/13 03:30:27;;;;;;;9.10;6.07;;;;;;;9.62;95.57;100785.84;5020947;28;20214;-81
2022/10/13 03:32:54;;;;;;;10.63;6.10;;;;;;;9.62;95.59;100778.03;5020563;28;20231;-79
2022/10/13 03:35:20;;;;;;;16.57;7.23;;;;;;;9.66;95.66;100775.38;5020856;28;20211;-79
2022/10/13 03:37:47;;;;;;;8.13;6.23;;;;;;;9.66;95.46;100780.59;5020348;28;20254;-79
2022/10/13 03:40:13;;;;;;;6.13;5.63;;;;;;;9.67;95.69;100782.31;5020252;28;20238;-80
2022/10/13 03:42:41;;;;;;;9.40;6.73;;;;;;;9.69;95.58;100782.28;5020262;28;20234;-80
2022/10/13 03:45:08;;;;;;;7.27;6.43;;;;;;;9.70;96.05;100774.47;5020925;28;20203;-81
2022/10/13 03:47:35;;;;;;;7.57;5.93;;;;;;;9.69;96.48;100772.75;5020530;28;20207;-80
2022/10/13 03:50:02;;;;;;;9.77;6.50;;;;;;;9.68;96.47;100763.19;5019250;28;20249;-80
2022/10/13 03:52:28;;;;;;;9.40;6.00;;;;;;;9.70;97.33;100744.94;5019900;28;20230;-81
2022/10/13 03:54:54;;;;;;;8.70;6.90;;;;;;;9.76;98.14;100730.97;5019530;28;20215;-80
2022/10/13 03:57:21;;;;;;;8.93;6.33;;;;;;;9.76;98.12;100724.00;5019925;28;20210;-80
2022/10/13 03:59:49;;;;;;;6.60;5.60;;;;;;;9.76;98.00;100723.16;5019786;28;20223;-79
2022/10/13 04:02:15;;;;;;;11.07;6.20;;;;;;;9.75;97.93;100737.91;5020531;28;20231;-80
2022/10/13 04:04:42;;;;;;;11.80;6.60;;;;;;;9.76;97.48;100747.47;5019563;28;20209;-80
2022/10/13 04:07:08;;;;;;;7.67;6.37;;;;;;;9.73;97.26;100755.31;5020393;28;20206;-82
2022/10/13 04:09:35;;;;;;;8.37;6.43;;;;;;;9.69;97.44;100756.22;5020680;28;20201;-79
2022/10/13 04:12:01;;;;;;;9.83;6.37;;;;;;;9.67;97.94;100742.34;5019274;28;20713;-81
2022/10/13 04:14:30;;;;;;;9.43;6.17;;;;;;;9.69;98.14;100731.03;5019610;28;20212;-81
2022/10/13 04:16:58;;;;;;;12.33;6.73;;;;;;;9.72;98.19;100738.81;5019630;28;20203;-82
2022/10/13 04:19:25;;;;;;;8.70;6.07;;;;;;;9.73;98.03;100735.34;5019580;28;20226;-81
2022/10/13 04:21:51;;;;;;;7.93;6.47;;;;;;;9.75;97.90;100745.72;5019258;28;20242;-80
2022/10/13 04:24:18;;;;;;;10.63;6.63;;;;;;;9.75;97.70;100748.34;5018416;28;20210;-82
2022/10/13 04:26:45;;;;;;;9.03;7.07;;;;;;;9.73;98.30;100743.16;5020026;28;20217;-81
2022/10/13 04:29:12;;;;;;;13.33;6.37;;;;;;;9.71;98.82;100734.50;5020638;28;20258;-81
2022/10/13 04:31:41;;;;;;;8.43;6.60;;;;;;;9.71;98.89;100725.78;5020776;28;20218;-80
2022/10/13 04:34:09;;;;;;;8.93;6.83;;;;;;;9.74;99.12;100720.56;5020520;28;20207;-82
2022/10/13 04:36:35;;;;;;;9.47;7.13;;;;;;;9.79;99.21;100715.28;5019673;28;20210;-81
2022/10/13 04:39:02;;;;;;;7.23;6.53;;;;;;;9.79;98.95;100718.78;5019634;28;20729;-81
2022/10/13 04:41:28;;;;;;;10.60;6.60;;;;;;;9.78;98.78;100726.59;5019908;28;20219;-78
2022/10/13 04:43:55;;;;;;;7.83;5.67;;;;;;;9.79;98.56;100718.78;5019030;28;20223;-82
2022/10/13 04:46:23;;;;;;;7.13;6.30;;;;;;;9.80;98.55;100725.69;5019702;28;20207;-81
2022/10/13 04:48:50;;;;;;;7.37;6.40;;;;;;;9.78;98.49;100724.84;5019451;28;20198;-80
2022/10/13 04:51:20;;;;;;;7.63;6.63;;;;;;;9.77;98.76;100719.66;5019723;28;20214;-81
2022/10/13 04:53:47;;;;;;;7.27;6.63;;;;;;;9.76;99.05;100721.41;5019169;28;20227;-82
2022/10/13 04:56:15;;;;;;;12.07;7.23;;;;;;;9.78;98.64;100718.78;5019306;28;20211;-80
2022/10/13 04:58:43;;;;;;;7.67;6.97;;;;;;;9.79;98.69;100720.50;5019347;28;20207;-80
2022/10/13 05:01:13;;;;;;;9.17;7.50;;;;;;;9.74;98.99;100718.81;5020757;28;20215;-81
2022/10/13 05:03:41;;;;;;;9.10;8.07;;;;;;;9.77;99.57;100701.41;5025249;28;20218;-81
2022/10/13 05:06:13;;;;;;;8.40;7.60;;;;;;;9.80;99.28;100698.78;5037871;28;20221;-79
2022/10/13 05:08:41;;;;;;;8.93;8.03;;;;;;;9.77;99.84;100702.25;5034382;28;20208;-80
2022/10/13 05:11:08;;;;;;;9.67;8.77;;;;;;;9.79;100.00;100687.50;5038011;28;20202;-79
2022/10/13 05:13:35;;;;;;;8.87;7.40;;;;;;;9.81;100.00;100682.22;5032837;28;20218;-79
2022/10/13 05:16:06;;;;;;;10.03;7.73;;;;;;;9.82;100.00;100689.19;5039767;28;20204;-82
2022/10/13 05:18:33;;;;;;;8.80;7.90;;;;;;;9.81;100.00;100685.72;5037662;28;20626;-82
2022/10/13 05:21:06;;;;;;;10.77;8.23;;;;;;;9.82;99.87;100689.19;5037849;28;20706;-80
2022/10/13 05:23:32;;;;;;;11.10;8.37;;;;;;;9.79;99.56;100694.44;5003032;28;20215;-80
2022/10/13 05:26:02;;;;;;;14.17;7.83;;;;;;;9.78;99.42;100690.97;5018737;28;20297;-80
2022/10/13 05:28:29;;;;;;;9.83;7.60;;;;;;;9.78;99.23;100703.16;5016359;28;20206;-82
2022/10/13 05:30:56;;;;;;;9.80;7.67;;;;;;;9.73;99.77;100698.84;5019437;28;20256;-80
2022/10/13 05:33:22;;;;;;;11.50;7.60;;;;;;;9.77;99.58;100697.03;5017472;28;20687;-79
2022/10/13 05:35:48;;;;;;;12.70;8.20;;;;;;;9.79;99.10;100703.13;5017985;28;20211;-80
2022/10/13 05:38:15;;;;;;;11.40;7.50;;;;;;;9.83;98.57;100712.66;5018084;28;20230;-80
2022/10/13 05:40:41;;;;;;;17.63;8.83;;;;;;;9.81;98.22;100727.44;5018195;28;20230;-80
2022/10/13 05:43:09;;;;;;;9.30;7.60;;;;;;;9.80;98.31;100738.72;5018312;28;20234;-79
2022/10/13 05:45:36;;;;;;;9.47;7.20;;;;;;;9.80;98.22;100736.13;5028927;28;20198;-81
2022/10/13 05:48:02;;;;;;;9.00;7.53;;;;;;;9.79;97.85;100738.75;5037735;28;20221;-82
2022/10/13 05:50:28;;;;;;;9.80;7.37;;;;;;;9.77;97.91;100735.28;5038468;28;20205;-81
2022/10/13 05:52:56;;;;;;;12.53;8.47;;;;;;;9.75;98.40;100730.09;5038792;28;20304;-81
2022/10/13 05:55:23;;;;;;;10.30;8.00;;;;;;;9.76;98.01;100720.53;5038921;28;20199;-80
2022/10/13 05:57:51;;;;;;;8.70;7.90;;;;;;;9.74;98.40;100724.03;5029406;28;20697;-80
2022/10/13 06:00:20;;;;;;;14.80;8.60;;;;;;;9.69;98.57;100714.53;5009242;28;20218;-81
2022/10/13 06:02:50;;;;;;;10.10;9.13;;;;;;;9.73;98.86;100697.97;5009838;28;20215;-82
2022/10/13 06:05:19;;;;;;;11.47;10.27;;;;;;;9.69;99.21;100686.72;5010253;28;20204;-82
2022/10/13 06:07:46;;;;;;;10.70;9.70;;;;;;;9.69;99.33;100683.25;5004254;28;20208;-83
2022/10/13 06:10:14;;;;;;;14.83;10.93;;;;;;;9.74;99.75;100665.81;5000338;28;20737;-83
2022/10/13 06:12:40;;;;;;;14.10;10.30;;;;;;;9.70;100.00;100664.13;4999724;28;20234;-83
2022/10/13 06:15:08;;;;;;;13.13;10.20;;;;;;;9.74;100.00;100652.78;5000147;28;20207;-82
2022/10/13 06:17:37;;;;;;;12.77;10.20;;;;;;;9.79;100.00;100645.78;4999908;28;20213;-82
2022/10/13 06:20:04;;;;;;;11.60;10.60;;;;;;;9.86;100.00;100652.63;5000130;28;20262;-82
2022/10/13 06:22:31;;;;;;;17.67;11.03;;;;;;;9.86;100.00;100652.63;5000252;28;20238;-82
2022/10/13 06:24:58;;;;;;;18.37;11.57;;;;;;;9.94;100.00;100649.91;5000725;28;20219;-82
2022/10/13 06:27:24;;;;;;;12.70;11.40;;;;;;;9.96;100.00;100649.91;5000602;28;20212;-82
2022/10/13 06:29:50;;;;;;;13.83;12.33;;;;;;;9.97;100.00;100639.47;4999207;28;20738;-79
2022/10/13 06:32:17;;;;;;;14.87;10.83;;;;;;;10.03;100.00;100644.59;4999083;28;20602;-81
2022/10/13 06:34:45;;;;;;;13.47;10.80;;;;;;;10.04;100.00;100654.13;4999307;28;20207;-82
2022/10/13 06:37:11;;;;;;;14.27;10.37;;;;;;;10.07;100.00;100654.09;4999522;28;20223;-81
2022/10/13 06:39:38;;;;;;;14.97;10.97;;;;;;;10.08;100.00;100652.34;4999373;28;20239;-81
2022/10/13 06:42:04;;;;;;;21.60;10.37;;;;;;;10.16;100.00;100654.84;4999294;28;20239;-81
2022/10/13 06:44:31;;;;;;;12.53;11.23;;;;;;;10.17;100.00;100660.06;5000863;28;20216;-82
2022/10/13 06:46:58;;;;;;;11.70;10.47;;;;;;;10.21;99.85;100664.34;4999360;28;20261;-82
2022/10/13 06:49:24;;;;;;;15.53;11.33;;;;;;;10.28;99.92;100662.50;4999390;28;20206;-81
2022/10/13 06:51:52;;;;;;;19.73;12.20;;;;;;;10.28;99.89;100673.78;4998703;28;20715;-81
2022/10/13 06:54:19;;;;;;;13.87;11.20;;;;;;;10.30;99.90;100669.44;4999342;28;20557;-83
2022/10/13 06:56:45;;;;;;;12.33;10.87;;;;;;;10.34;99.85;100665.91;4999214;28;20258;-82
2022/10/13 06:59:12;;;;;;;12.63;11.47;;;;;;;10.41;99.56;100677.13;4999485;28;20212;-82
2022/10/13 07:01:38;;;;;;;12.93;11.43;;;;;;;10.45;99.15;100683.19;4999044;28;20215;-82
2022/10/13 07:04:05;;;;;;;16.50;11.67;;;;;;;10.49;98.79;100687.47;4999590;28;20209;-84
2022/10/13 07:06:32;;;;;;;12.47;11.00;;;;;;;10.53;98.60;100694.38;5000436;28;20214;-81
2022/10/13 07:09:02;;;;;;;16.43;11.50;;;;;;;10.59;98.45;100696.88;5010468;28;20211;-79
2022/10/13 07:11:29;;;;;;;12.87;10.40;;;;;;;10.68;99.37;100686.31;5008211;28;20196;-81
2022/10/13 07:13:56;;;;;;;18.03;12.50;;;;;;;10.77;99.79;100684.44;5009272;28;20427;-79
2022/10/13 07:16:22;;;;;;;14.07;11.67;;;;;;;10.92;100.00;100668.50;5002136;28;20210;-79
2022/10/13 07:18:49;;;;;;;24.07;13.10;;;;;;;10.99;100.00;100657.06;5002287;28;20700;-79
2022/10/13 07:21:16;;;;;;;13.83;10.80;;;;;;;11.10;100.00;100655.16;5005395;28;20223;-80
2022/10/13 07:23:42;;;;;;;18.53;11.77;;;;;;;11.26;100.00;100632.22;5006961;28;20231;-80
2022/10/13 07:26:12;;;;;;;16.63;10.77;;;;;;;11.40;100.00;100629.34;5020200;28;20234;-79
2022/10/13 07:28:39;;;;;;;11.23;10.07;;;;;;;11.43;99.70;100655.41;5031458;28;20211;-81
2022/10/13 07:31:10;;;;;;;12.67;10.50;;;;;;;11.48;98.57;100698.00;5036318;28;20218;-80
2022/10/13 07:33:37;;;;;;;15.50;10.33;;;;;;;11.65;99.46;100695.06;5031330;28;20584;-79
2022/10/13 07:36:04;;;;;;;11.50;10.40;;;;;;;11.70;97.27;100724.63;5040584;28;20210;-81
2022/10/13 07:38:31;;;;;;;11.70;10.47;;;;;;;11.70;96.22;100755.16;5038885;28;20202;-80
2022/10/13 07:41:00;;;;;;;10.60;9.77;;;;;;;11.67;94.80;100795.28;5038657;28;20226;-81
2022/10/13 07:43:27;;;;;;;11.37;9.57;;;;;;;11.72;93.70;100803.06;5037310;28;20258;-83
2022/10/13 07:45:54;;;;;;;10.93;9.67;;;;;;;11.83;95.05;100810.69;5036898;28;20207;-81
2022/10/13 07:48:20;;;;;;;11.70;10.53;;;;;;;11.94;96.51;100766.91;5036298;28;20236;-80
2022/10/13 07:50:47;;;;;;;11.60;10.50;;;;;;;11.94;94.12;100813.16;5035027;28;20208;-80
2022/10/13 07:53:13;;;;;;;14.53;11.07;;;;;;;12.01;93.13;100836.56;5032131;28;20228;-81
2022/10/13 07:55:40;;;;;;;10.50;9.50;;;;;;;12.14;93.55;100828.47;5015736;28;20204;-81
2022/10/13 07:58:06;;;;;;;12.60;9.60;;;;;;;12.30;94.06;100822.91;5016706;28;20207;-80
2022/10/13 08:00:34;;;;;;;17.97;11.10;;;;;;;12.39;93.05;100821.88;5015784;28;20317;-79
2022/10/13 08:03:00;;;;;;;10.77;9.77;;;;;;;12.35;90.60;100871.69;5015726;28;20283;-82
2022/10/13 08:05:27;;;;;;;12.40;9.50;;;;;;;12.44;91.54;100867.13;5015553;28;20516;-79
2022/10/13 08:07:53;;;;;;;13.03;8.73;;;;;;;12.46;90.65;100872.34;5016350;28;20211;-80
2022/10/13 08:10:20;;;;;;;11.43;8.67;;;;;;;12.41;89.95;100892.53;5015476;28;20200;-79
2022/10/13 08:12:47;;;;;;;10.87;9.77;;;;;;;12.36;89.43;100916.16;5017289;28;20226;-81
2022/10/13 08:15:14;;;;;;;11.20;9.37;;;;;;;12.49;89.65;100896.72;5016146;28;20621;-80
2022/10/13 08:17:42;;;;;;;11.60;8.37;;;;;;;12.67;90.50;100889.41;5015360;28;20687;-79
2022/10/13 08:20:09;;;;;;;11.67;8.97;;;;;;;12.85;91.61;100851.47;5016155;28;20254;-79
2022/10/13 08:22:36;;;;;;;16.20;8.83;;;;;;;12.80;88.54;100896.09;5016008;28;20314;-79
2022/10/13 08:25:02;;;;;;;11.03;8.33;;;;;;;12.88;88.14;100930.88;5016611;28;20214;-82
2022/10/13 08:27:29;;;;;;;11.77;9.17;;;;;;;13.00;89.73;100890.44;5018136;28;20209;-81
2022/10/13 08:29:56;;;;;;;9.03;8.13;;;;;;;13.17;90.07;100863.00;5016919;28;20209;-79
2022/10/13 08:32:23;;;;;;;9.07;8.20;;;;;;;13.26;89.28;100883.72;5017381;28;20319;-80
2022/10/13 08:34:50;;;;;;;10.33;8.10;;;;;;;13.40;86.94;100922.78;5018166;28;20701;-80
2022/10/13 08:37:20;;;;;;;8.77;6.97;;;;;;;13.47;87.05;100935.72;5020738;28;20213;-81
2022/10/13 08:39:47;;;;;;;7.73;7.07;;;;;;;13.50;86.40;100956.66;5021846;28;20198;-80
2022/10/13 08:42:17;;;;;;;8.63;7.83;;;;;;;13.64;87.58;100935.34;5022482;28;20243;-80
2022/10/13 08:44:46;;;;;;;10.70;7.67;;;;;;;13.78;87.40;100935.00;5021995;28;20244;-80
2022/10/13 08:47:24;;;;;;;7.83;7.13;;;;;;;13.74;83.06;101005.97;5019553;28;20210;-83
2022/10/13 08:49:52;;;;;;;8.90;7.70;;;;;;;13.82;84.82;101023.25;5019722;28;20217;-80
2022/10/13 08:52:21;;;;;;;7.83;7.07;;;;;;;13.88;84.62;101004.75;5019851;28;20236;-82
2022/10/13 08:54:48;;;;;;;10.67;6.60;;;;;;;13.76;82.39;101041.78;5019607;28;20210;-81
2022/10/13 08:57:14;;;;;;;8.13;7.33;;;;;;;13.96;85.24;101006.34;5019255;28;20691;-81
2022/10/13 08:59:41;;;;;;;8.57;7.67;;;;;;;14.05;83.81;101042.84;5019582;28;20209;-79
2022/10/13 09:02:12;;;;;;;8.17;7.33;;;;;;;13.91;81.94;101053.66;5020443;28;20230;-81
2022/10/13 09:04:41;;;;;;;7.57;6.77;;;;;;;13.99;84.24;101043.84;5019770;28;20699;-82
2022/10/13 09:07:15;;;;;;;10.60;6.77;;;;;;;13.92;83.21;101046.69;5019033;28;20604;-80
2022/10/13 09:09:42;;;;;;;10.17;6.97;;;;;;;13.84;82.65;101080.97;5019860;28;20202;-79
2022/10/13 09:12:10;;;;;;;8.70;7.90;;;;;;;13.92;83.36;101030.94;5019580;28;20226;-79
2022/10/13 09:14:39;;;;;;;9.37;7.20;;;;;;;13.76;81.86;101068.00;5020522;28;20202;-81
2022/10/13 09:17:17;;;;;;;10.13;7.47;;;;;;;13.67;82.79;101058.56;5020477;28;20208;-81
2022/10/13 09:19:45;;;;;;;7.87;7.17;;;;;;;13.68;83.61;101015.69;5019474;28;20210;-81
2022/10/13 09:22:23;;;;;;;8.20;7.27;;;;;;;13.62;83.46;101023.72;5019559;28;20327;-80
2022/10/13 09:25:07;;;;;;;8.77;7.93;;;;;;;13.54;83.29;101035.25;5019140;28;20221;-82
2022/10/13 09:27:42;;;;;;;8.40;7.60;;;;;;;13.47;83.17;101026.66;5018064;28;20681;-83
2022/10/13 09:30:25;;;;;;;9.43;7.30;;;;;;;13.46;82.53;101017.94;5019450;28;20287;-82
2022/10/13 09:32:55;;;;;;;8.03;7.33;;;;;;;13.46;83.29;101017.94;5019926;28;20252;-81
2022/10/13 09:35:23;;;;;;;7.70;6.87;;;;;;;13.43;83.58;100998.78;5018041;28;20220;-81
2022/10/13 09:38:03;;;;;;;8.33;7.53;;;;;;;13.42;82.98;101000.53;5002542;28;20576;-82
2022/10/13 09:40:31;;;;;;;8.03;6.80;;;;;;;13.54;84.34;100974.91;4998440;28;20836;-81
2022/10/13 09:42:58;;;;;;;8.67;7.43;;;;;;;13.59;83.41;100988.81;4999089;28;20242;-81
2022/10/13 09:45:26;;;;;;;11.80;7.20;;;;;;;13.70;83.53;100978.94;5000869;28;20698;-81
2022/10/13 09:47:55;;;;;;;7.63;6.93;;;;;;;13.73;83.37;100988.50;4999449;28;20301;-80
2022/10/13 09:50:24;;;;;;;8.23;7.40;;;;;;;13.87;83.89;100978.53;4999146;28;20210;-82
2022/10/13 09:52:51;;;;;;;9.43;7.40;;;;;;;13.91;82.99;101001.16;5001147;28;20240;-79
2022/10/13 09:55:30;;;;;;;8.87;7.97;;;;;;;13.89;81.54;101043.22;5000826;28;20214;-81
2022/10/13 09:58:04;;;;;;;7.50;6.37;;;;;;;14.02;81.50;101042.94;5001912;28;20214;-80
2022/10/13 10:00:32;;;;;;;10.17;7.43;;;;;;;14.02;80.68;101056.91;4999732;28;20782;-83
2022/10/13 10:03:02;;;;;;;7.30;6.60;;;;;;;14.11;81.71;101050.56;4999291;28;20229;-83
2022/10/13 10:05:40;;;;;;;8.23;7.00;;;;;;;14.22;80.87;101058.22;5000336;28;20566;-81
2022/10/13 10:08:16;;;;;;;7.70;6.57;;;;;;;14.35;81.10;101050.88;4999724;28;20694;-82
2022/10/13 10:10:46;;;;;;;6.63;5.63;;;;;;;14.49;80.28;101062.78;4999540;28;20675;-81
2022/10/13 10:13:13;;;;;;;7.43;5.10;;;;;;;14.56;78.33;101108.19;4999383;28;20233;-81
2022/10/13 10:15:50;;;;;;;8.03;5.53;;;;;;;14.72;79.21;101100.78;4999438;28;20210;-85
2022/10/13 10:18:20;;;;;;;5.70;5.17;;;;;;;14.78;78.35;101089.25;4999734;28;20206;-82
2022/10/13 10:21:00;;;;;;;9.27;5.80;;;;;;;14.81;76.71;101149.63;4999971;28;20238;-82
2022/10/13 10:23:39;;;;;;;6.47;4.83;;;;;;;14.78;76.43;101178.59;5000487;28;20316;-80
2022/10/13 10:26:14;;;;;;;6.93;5.03;;;;;;;14.83;77.17;101158.34;4999976;28;20217;-81
2022/10/13 10:28:50;;;;;;;6.17;5.53;;;;;;;14.80;76.25;101185.53;4999138;28;20309;-79
2022/10/13 10:31:27;;;;;;;5.77;5.23;;;;;;;14.78;75.72;101187.34;5000104;28;20582;-82
2022/10/13 10:34:06;;;;;;;5.57;5.07;;;;;;;14.82;75.73;101194.25;4999608;28;20708;-82
2022/10/13 10:36:41;;;;;;;7.87;6.07;;;;;;;14.85;75.71;101204.69;4999357;28;20213;-82
2022/10/13 10:39:20;;;;;;;6.00;5.40;;;;;;;14.86;76.27;101195.91;4999784;28;21005;-83
2022/10/13 10:41:53;;;;;;;12.10;5.67;;;;;;;14.90;76.19;101183.53;4999653;28;20233;-81
2022/10/13 10:44:23;;;;;;;7.67;5.90;;;;;;;14.80;74.76;101221.47;4998666;28;20210;-82
2022/10/13 10:46:50;;;;;;;7.13;6.00;;;;;;;14.86;74.55;101223.97;4998609;28;20210;-84
2022/10/13 10:49:22;;;;;;;5.53;5.00;;;;;;;14.98;74.53;101205.25;4998914;28;20229;-82
2022/10/13 10:51:49;;;;;;;9.30;5.90;;;;;;;14.99;75.15;101219.28;4998696;28;20232;-82
2022/10/13 10:54:31;;;;;;;6.60;5.93;;;;;;;15.02;73.65;101217.41;4999321;28;20671;-83
2022/10/13 10:57:05;;;;;;;9.90;5.33;;;;;;;15.04;73.91;101249.81;4999540;28;20753;-80
2022/10/13 10:59:46;;;;;;;9.83;5.83;;;;;;;14.95;72.95;101244.78;4998227;28;20206;-81
2022/10/13 11:02:28;;;;;;;6.70;5.70;;;;;;;15.03;73.70;101234.06;4998091;28;20230;-83
2022/10/13 11:04:54;;;;;;;7.40;5.93;;;;;;;14.92;72.74;101225.56;4998649;28;20214;-82
2022/10/13 11:07:50;;;;;;;8.13;6.07;;;;;;;14.97;74.18;101213.19;4998694;28;20216;-80
2022/10/13 11:10:20;;;;;;;6.30;5.80;;;;;;;14.87;73.72;101191.53;4997666;28;20222;-80
2022/10/13 11:13:25;;;;;;;5.73;5.23;;;;;;;14.96;73.77;101170.25;4999689;28;20222;-83
2022/10/13 11:15:54;;;;;;;6.13;5.17;;;;;;;14.92;74.05;101178.25;4997227;28;20683;-82
2022/10/13 11:19:04;;;;;;;7.57;5.53;;;;;;;14.94;73.64;101172.06;5000258;28;20251;-81
2022/10/13 11:22:11;;;;;;;6.93;5.63;;;;;;;14.97;73.18;101182.50;4999216;28;20321;-80
2022/10/13 11:24:52;;;;;;;7.37;5.40;;;;;;;15.02;72.98;101164.81;5004046;28;20239;-82
2022/10/13 11:27:25;;;;;;;8.30;5.67;;;;;;;15.21;73.53;101169.63;5006852;28;20216;-80
2022/10/13 11:29:56;;;;;;;11.47;9.10;;;;;;;15.31;73.40;101141.31;5011001;28;20210;-81
2022/10/13 11:32:54;;;;;;;5.90;5.40;;;;;;;15.37;72.54;101168.31;5014820;28;20229;-81
2022/10/13 11:35:23;;;;;;;6.10;5.60;;;;;;;15.43;72.60;101148.88;5047638;28;20226;-80